createdAt,value
2023-04-01T00:01:25.442Z,4.63
2023-04-01T00:03:52.174Z,4.97
2023-04-01T00:06:19.519Z,4.85
2023-04-01T00:08:46.601Z,6.13
2023-04-01T00:11:13.782Z,7.05
2023-04-01T00:13:40.680Z,6.57
2023-04-01T00:16:17.897Z,5.63
2023-04-01T00:18:48.632Z,4.95
2023-04-01T00:21:16.226Z,3.22
2023-04-01T00:23:42.851Z,5.18
2023-04-01T00:26:09.626Z,5.93
2023-04-01T00:28:36.970Z,5.68
2023-04-01T00:31:08.368Z,4.28
2023-04-01T00:33:35.289Z,5.07
2023-04-01T00:36:11.970Z,5.55
2023-04-01T00:38:39.009Z,4.72
2023-04-01T00:41:06.564Z,6.03
2023-04-01T00:43:34.255Z,4.03
2023-04-01T00:46:00.992Z,4.65
2023-04-01T00:48:32.225Z,4.30
2023-04-01T00:51:06.998Z,5.38
2023-04-01T00:53:37.433Z,5.22
2023-04-01T00:56:16.396Z,5.70
2023-04-01T00:58:48.595Z,5.53
2023-04-01T01:01:16.103Z,4.18
2023-04-01T01:03:42.848Z,4.35
2023-04-01T01:06:39.837Z,5.10
2023-04-01T01:09:41.916Z,6.72
2023-04-01T01:12:19.641Z,3.95
2023-04-01T01:15:08.100Z,5.30
2023-04-01T01:18:06.600Z,4.07
2023-04-01T01:20:57.926Z,5.20
2023-04-01T01:23:51.015Z,4.97
2023-04-01T01:26:44.596Z,3.80
2023-04-01T01:29:29.218Z,5.43
2023-04-01T01:32:04.096Z,5.35
2023-04-01T01:34:42.917Z,4.93
2023-04-01T01:37:17.214Z,3.35
2023-04-01T01:39:47.026Z,5.13
2023-04-01T01:42:16.822Z,3.95
2023-04-01T01:44:46.364Z,4.55
2023-04-01T01:47:14.393Z,4.57
2023-04-01T01:49:42.978Z,4.65
2023-04-01T01:52:09.934Z,4.00
2023-04-01T01:54:36.810Z,4.85
2023-04-01T01:57:10.540Z,4.15
2023-04-01T01:59:39.330Z,5.25
2023-04-01T02:02:08.968Z,4.32
2023-04-01T02:04:38.176Z,2.83
2023-04-01T02:07:09.543Z,4.82
2023-04-01T02:09:36.569Z,3.70
2023-04-01T02:12:07.759Z,3.55
2023-04-01T02:14:44.290Z,3.93
2023-04-01T02:17:17.470Z,4.10
2023-04-01T02:19:58.040Z,5.00
2023-04-01T02:22:29.517Z,3.50
2023-04-01T02:25:00.212Z,3.95
2023-04-01T02:27:27.055Z,3.65
2023-04-01T02:29:53.985Z,4.70
2023-04-01T02:32:21.822Z,4.35
2023-04-01T02:34:49.076Z,3.13
2023-04-01T02:37:16.053Z,4.50
2023-04-01T02:39:43.666Z,3.60
2023-04-01T02:42:10.653Z,4.18
2023-04-01T02:44:37.740Z,4.50
2023-04-01T02:47:04.622Z,4.88
2023-04-01T02:49:31.394Z,4.03
2023-04-01T02:51:57.951Z,4.00
2023-04-01T02:54:24.570Z,3.78
2023-04-01T02:56:51.215Z,2.55
2023-04-01T02:59:18.019Z,3.47
2023-04-01T03:01:44.588Z,3.30
2023-04-01T03:04:11.149Z,3.72
2023-04-01T03:06:37.702Z,4.15
2023-04-01T03:09:04.372Z,3.85
2023-04-01T03:11:32.027Z,4.00
2023-04-01T03:13:58.570Z,3.28
2023-04-01T03:16:25.247Z,3.78
2023-04-01T03:18:53.457Z,3.35
2023-04-01T03:21:22.755Z,3.30
2023-04-01T03:23:49.507Z,3.17
2023-04-01T03:26:16.544Z,4.53
2023-04-01T03:28:43.389Z,3.28
2023-04-01T03:31:10.564Z,2.90
2023-04-01T03:33:37.390Z,3.58
2023-04-01T03:36:07.300Z,3.10
2023-04-01T03:38:36.945Z,2.92
2023-04-01T03:41:03.893Z,3.00
2023-04-01T03:43:30.790Z,4.43
2023-04-01T03:45:58.890Z,2.70
2023-04-01T03:48:26.701Z,3.42
2023-04-01T03:50:53.531Z,2.97
2023-04-01T03:53:20.651Z,2.85
2023-04-01T03:55:47.730Z,3.22
2023-04-01T03:58:14.831Z,2.50
2023-04-01T04:00:41.565Z,2.40
2023-04-01T04:03:08.312Z,3.22
2023-04-01T04:05:35.477Z,2.65
2023-04-01T04:08:02.697Z,3.22
2023-04-01T04:10:30.170Z,3.03
2023-04-01T04:12:57.016Z,3.65
2023-04-01T04:15:24.033Z,2.90
2023-04-01T04:17:50.677Z,4.18
2023-04-01T04:20:17.399Z,2.85
2023-04-01T04:22:44.000Z,2.60
2023-04-01T04:25:10.650Z,2.67
2023-04-01T04:27:37.352Z,1.88
2023-04-01T04:30:06.405Z,3.05
2023-04-01T04:32:33.044Z,3.00
2023-04-01T04:34:59.666Z,2.88
2023-04-01T04:37:27.362Z,2.90
2023-04-01T04:39:53.952Z,2.33
2023-04-01T04:42:20.680Z,1.88
2023-04-01T04:44:47.282Z,2.38
2023-04-01T04:47:14.042Z,1.92
2023-04-01T04:49:40.998Z,2.25
2023-04-01T04:52:07.661Z,2.40
2023-04-01T04:54:34.345Z,2.20
2023-04-01T04:57:01.233Z,2.05
2023-04-01T04:59:27.789Z,2.55
2023-04-01T05:01:54.409Z,2.40
2023-04-01T05:04:21.015Z,2.28
2023-04-01T05:06:47.668Z,2.58
2023-04-01T05:09:14.281Z,2.17
2023-04-01T05:11:41.135Z,3.00
2023-04-01T05:14:12.397Z,2.42
2023-04-01T05:16:39.032Z,2.55
2023-04-01T05:19:05.660Z,2.90
2023-04-01T05:21:32.432Z,2.72
2023-04-01T05:23:59.117Z,2.70
2023-04-01T05:26:25.788Z,2.35
2023-04-01T05:28:52.336Z,2.85
2023-04-01T05:31:19.007Z,2.28
2023-04-01T05:33:45.757Z,1.92
2023-04-01T05:36:17.075Z,2.38
2023-04-01T05:38:46.598Z,2.75
2023-04-01T05:41:13.501Z,2.20
2023-04-01T05:43:41.207Z,1.92
2023-04-01T05:46:07.846Z,1.67
2023-04-01T05:48:35.983Z,2.45
2023-04-01T05:51:03.526Z,2.08
2023-04-01T05:53:30.171Z,1.80
2023-04-01T05:55:56.862Z,3.33
2023-04-01T05:58:23.425Z,2.30
2023-04-01T06:00:59.045Z,3.53
2023-04-01T06:03:32.702Z,3.00
2023-04-01T06:05:59.935Z,1.48
2023-04-01T06:08:26.677Z,3.97
2023-04-01T06:11:06.125Z,3.80
2023-04-01T06:14:06.595Z,4.53
2023-04-01T06:17:18.197Z,2.33
2023-04-01T06:20:03.534Z,6.57
2023-04-01T06:23:04.363Z,1.88
2023-04-01T06:26:05.254Z,3.78
2023-04-01T06:28:41.039Z,2.13
2023-04-01T06:31:26.586Z,3.30
2023-04-01T06:34:22.549Z,2.33
2023-04-01T06:37:01.209Z,3.05
2023-04-01T06:39:56.715Z,1.55
2023-04-01T06:42:58.536Z,3.22
2023-04-01T06:45:40.230Z,3.63
2023-04-01T06:48:19.041Z,5.40
2023-04-01T06:50:46.422Z,3.05
2023-04-01T06:53:23.076Z,2.80
2023-04-01T06:56:08.591Z,2.97
2023-04-01T06:58:47.120Z,1.52
2023-04-01T07:01:21.038Z,3.15
2023-04-01T07:04:10.884Z,1.30
2023-04-01T07:06:49.775Z,1.55
2023-04-01T07:09:39.662Z,3.38
2023-04-01T07:12:35.046Z,1.90
2023-04-01T07:15:44.560Z,3.42
2023-04-01T07:18:25.762Z,2.70
2023-04-01T07:20:53.093Z,3.35
2023-04-01T07:23:30.064Z,2.30
2023-04-01T07:26:01.616Z,2.65
2023-04-01T07:28:32.958Z,1.75
2023-04-01T07:31:14.699Z,2.85
2023-04-01T07:33:53.013Z,2.63
2023-04-01T07:36:27.697Z,2.08
2023-04-01T07:39:24.605Z,2.15
2023-04-01T07:42:09.718Z,1.73
2023-04-01T07:44:36.238Z,3.20
2023-04-01T07:47:11.550Z,1.55
2023-04-01T07:50:19.131Z,1.85
2023-04-01T07:53:09.076Z,2.08
2023-04-01T07:55:57.797Z,1.65
2023-04-01T07:58:43.183Z,1.88
2023-04-01T08:01:24.788Z,5.60
2023-04-01T08:04:13.875Z,2.80
2023-04-01T08:07:06.936Z,2.60
2023-04-01T08:09:51.808Z,1.75
2023-04-01T08:12:46.306Z,1.67
2023-04-01T08:15:22.866Z,4.32
2023-04-01T08:18:06.138Z,3.58
2023-04-01T08:20:47.820Z,1.83
2023-04-01T08:23:25.599Z,2.05
2023-04-01T08:26:11.401Z,2.17
2023-04-01T08:29:00.323Z,3.10
2023-04-01T08:31:32.250Z,1.90
2023-04-01T08:33:59.068Z,2.80
2023-04-01T08:37:01.831Z,3.33
2023-04-01T08:39:37.387Z,3.22
2023-04-01T08:42:32.977Z,1.73
2023-04-01T08:45:21.274Z,1.17
2023-04-01T08:47:50.708Z,1.60
2023-04-01T08:50:36.108Z,1.10
2023-04-01T08:53:42.519Z,3.15
2023-04-01T08:56:32.513Z,1.83
2023-04-01T08:59:24.325Z,2.60
2023-04-01T09:02:23.325Z,1.13
2023-04-01T09:05:17.731Z,1.15
2023-04-01T09:07:53.803Z,1.27
2023-04-01T09:10:32.795Z,2.33
2023-04-01T09:13:29.413Z,5.55
2023-04-01T09:15:59.085Z,2.42
2023-04-01T09:18:38.525Z,1.58
2023-04-01T09:21:38.311Z,1.85
2023-04-01T09:24:07.730Z,4.53
2023-04-01T09:26:43.284Z,3.10
2023-04-01T09:29:36.081Z,1.77
2023-04-01T09:32:15.185Z,1.52
2023-04-01T09:35:18.991Z,1.02
2023-04-01T09:37:49.011Z,1.05
2023-04-01T09:40:19.319Z,2.25
2023-04-01T09:42:51.240Z,3.13
2023-04-01T09:45:20.767Z,2.40
2023-04-01T09:48:03.389Z,3.03
2023-04-01T09:50:51.681Z,1.27
2023-04-01T09:53:37.153Z,1.10
2023-04-01T09:56:22.472Z,1.63
2023-04-01T09:59:03.506Z,2.58
2023-04-01T10:01:58.038Z,1.73
2023-04-01T10:04:39.670Z,3.33
2023-04-01T10:07:27.909Z,1.15
2023-04-01T10:10:19.184Z,4.10
2023-04-01T10:13:05.069Z,4.35
2023-04-01T10:15:43.660Z,0.88
2023-04-01T10:18:29.148Z,1.63
2023-04-01T10:21:13.598Z,1.55
2023-04-01T10:24:04.029Z,1.10
2023-04-01T10:27:03.447Z,1.38
2023-04-01T10:29:45.317Z,1.25
2023-04-01T10:32:41.866Z,3.05
2023-04-01T10:35:40.456Z,0.73
2023-04-01T10:38:26.813Z,2.83
2023-04-01T10:41:23.126Z,2.65
2023-04-01T10:44:02.311Z,2.28
2023-04-01T10:47:06.965Z,2.05
2023-04-01T10:49:47.548Z,1.88
2023-04-01T10:52:43.703Z,1.40
2023-04-01T10:55:26.355Z,1.88
2023-04-01T10:58:18.233Z,1.15
2023-04-01T11:01:08.941Z,2.20
2023-04-01T11:03:53.987Z,1.73
2023-04-01T11:06:39.665Z,9.73
2023-04-01T11:09:43.988Z,5.57
2023-04-01T11:12:48.068Z,2.85
2023-04-01T11:15:33.632Z,3.47
2023-04-01T11:18:28.229Z,2.08
2023-04-01T11:21:29.961Z,2.53
2023-04-01T11:24:06.086Z,1.70
2023-04-01T11:26:52.516Z,2.00
2023-04-01T11:29:59.789Z,2.42
2023-04-01T11:32:35.339Z,1.23
2023-04-01T11:35:20.499Z,3.10
2023-04-01T11:38:07.933Z,2.35
2023-04-01T11:41:16.246Z,2.55
2023-04-01T11:43:48.606Z,5.63
2023-04-01T11:46:35.019Z,5.43
2023-04-01T11:49:25.844Z,1.98
2023-04-01T11:52:15.678Z,2.35
2023-04-01T11:55:07.850Z,4.15
2023-04-01T11:57:59.410Z,2.88
2023-04-01T12:00:50.366Z,3.73
2023-04-01T12:03:38.238Z,3.30
2023-04-01T12:06:24.202Z,1.65
2023-04-01T12:09:19.251Z,3.20
2023-04-01T12:12:07.772Z,1.02
2023-04-01T12:14:44.796Z,2.30
2023-04-01T12:17:37.532Z,1.67
2023-04-01T12:20:13.320Z,2.08
2023-04-01T12:23:05.519Z,2.20
2023-04-01T12:25:59.622Z,1.23
2023-04-01T12:28:37.316Z,2.28
2023-04-01T12:31:20.395Z,1.80
2023-04-01T12:34:16.162Z,1.55
2023-04-01T12:36:58.326Z,3.20
2023-04-01T12:39:46.024Z,1.05
2023-04-01T12:42:21.645Z,1.00
2023-04-01T12:45:03.271Z,1.08
2023-04-01T12:47:50.947Z,5.25
2023-04-01T12:50:45.646Z,3.00
2023-04-01T12:53:18.072Z,2.08
2023-04-01T12:55:46.070Z,0.60
2023-04-01T12:58:53.864Z,2.78
2023-04-01T13:01:40.937Z,0.50
2023-04-01T13:04:36.442Z,0.73
2023-04-01T13:07:30.285Z,0.73
2023-04-01T13:10:16.003Z,0.60
2023-04-01T13:13:39.621Z,0.60
2023-04-01T13:16:27.230Z,0.95
2023-04-01T13:19:04.556Z,1.17
2023-04-01T13:21:33.975Z,2.30
2023-04-01T13:24:25.066Z,0.93
2023-04-01T13:27:06.867Z,2.45
2023-04-01T13:29:46.270Z,4.75
2023-04-01T13:35:27.255Z,0.73
2023-04-01T13:38:09.647Z,0.50
2023-04-01T13:41:22.768Z,0.47
2023-04-01T13:43:59.464Z,0.68
2023-04-01T13:46:51.340Z,0.80
2023-04-01T13:49:27.022Z,0.40
2023-04-01T13:52:28.263Z,0.40
2023-04-01T13:55:15.169Z,1.10
2023-04-01T13:58:12.988Z,0.47
2023-04-01T14:00:52.379Z,1.55
2023-04-01T14:03:51.155Z,3.50
2023-04-01T14:06:39.201Z,6.95
2023-04-01T14:09:31.099Z,8.75
2023-04-01T14:12:19.385Z,7.75
2023-04-01T14:15:23.725Z,4.15
2023-04-01T14:17:59.424Z,3.88
2023-04-01T14:20:49.278Z,3.85
2023-04-01T14:23:28.410Z,4.82
2023-04-01T14:26:11.053Z,4.65
2023-04-01T14:28:37.687Z,3.97
2023-04-01T14:31:29.207Z,3.90
2023-04-01T14:34:22.697Z,3.15
2023-04-01T14:37:14.140Z,3.53
2023-04-01T14:40:17.257Z,2.70
2023-04-01T14:43:22.022Z,2.92
2023-04-01T14:46:20.727Z,2.55
2023-04-01T14:49:00.286Z,2.75
2023-04-01T14:51:35.916Z,2.50
2023-04-01T14:54:31.052Z,2.63
2023-04-01T14:57:14.396Z,2.72
2023-04-01T14:59:50.754Z,2.72
2023-04-01T15:02:36.897Z,2.28
2023-04-01T15:05:34.901Z,2.60
2023-04-01T15:08:31.315Z,2.13
2023-04-01T15:10:57.954Z,2.45
2023-04-01T15:13:36.758Z,2.47
2023-04-01T15:16:31.984Z,2.25
2023-04-01T15:19:29.276Z,2.28
2023-04-01T15:21:58.612Z,2.28
2023-04-01T15:24:48.167Z,2.20
2023-04-01T15:27:43.239Z,8.75
2023-04-01T15:30:20.949Z,2.33
2023-04-01T15:33:12.411Z,1.77
2023-04-01T15:35:44.861Z,1.57
2023-04-01T15:38:45.223Z,1.65
2023-04-01T15:41:21.499Z,1.70
2023-04-01T15:43:50.190Z,2.53
2023-04-01T15:46:28.701Z,3.28
2023-04-01T15:49:26.021Z,4.63
2023-04-01T15:51:52.634Z,3.33
2023-04-01T15:54:52.540Z,2.42
2023-04-01T15:57:52.533Z,2.35
2023-04-01T16:00:50.804Z,1.58
2023-04-01T16:03:32.260Z,1.65
2023-04-01T16:06:13.170Z,1.25
2023-04-01T16:09:01.039Z,1.73
2023-04-01T16:11:47.425Z,2.85
2023-04-01T16:14:51.811Z,1.65
2023-04-01T16:17:52.812Z,1.58
2023-04-01T16:20:36.514Z,1.30
2023-04-01T16:23:14.462Z,1.40
2023-04-01T16:25:48.462Z,1.45
2023-04-01T16:28:43.884Z,2.92
2023-04-01T16:31:31.633Z,1.50
2023-04-01T16:34:17.005Z,1.70
2023-04-01T16:36:59.692Z,1.58
2023-04-01T16:40:02.129Z,1.15
2023-04-01T16:42:54.791Z,1.48
2023-04-01T16:46:04.990Z,1.75
2023-04-01T16:49:12.919Z,1.08
2023-04-01T16:51:45.477Z,1.45
2023-04-01T16:54:21.915Z,1.77
2023-04-01T16:57:10.671Z,1.35
2023-04-01T17:00:15.931Z,0.93
2023-04-01T17:03:08.372Z,1.58
2023-04-01T17:06:09.840Z,1.83
2023-04-01T17:08:36.479Z,2.00
2023-04-01T17:11:44.042Z,2.35
2023-04-01T17:14:16.403Z,2.53
2023-04-01T17:17:02.478Z,1.20
2023-04-01T17:19:51.074Z,2.50
2023-04-01T17:22:26.531Z,1.88
2023-04-01T17:25:17.387Z,1.08
2023-04-01T17:28:04.457Z,1.02
2023-04-01T17:30:54.044Z,1.40
2023-04-01T17:33:29.972Z,14.45
2023-04-01T17:36:06.482Z,13.13
2023-04-01T17:39:03.645Z,14.30
2023-04-01T17:41:51.318Z,18.17
2023-04-01T17:44:27.713Z,12.23
2023-04-01T17:47:18.587Z,9.70
2023-04-01T17:50:22.416Z,11.63
2023-04-01T17:53:28.896Z,9.10
2023-04-01T17:56:01.406Z,14.23
2023-04-01T17:58:56.217Z,3.55
2023-04-01T18:01:37.265Z,4.18
2023-04-01T18:04:18.840Z,6.80
2023-04-01T18:07:09.633Z,4.07
2023-04-01T18:09:41.520Z,3.08
2023-04-01T18:12:17.093Z,3.55
2023-04-01T18:14:46.634Z,1.40
2023-04-01T18:17:18.449Z,3.10
2023-04-01T18:20:09.429Z,4.80
2023-04-01T18:22:44.025Z,2.15
2023-04-01T18:25:39.153Z,2.25
2023-04-01T18:28:35.903Z,2.35
2023-04-01T18:31:02.660Z,2.03
2023-04-01T18:33:53.632Z,2.83
2023-04-01T18:36:45.607Z,2.35
2023-04-01T18:39:26.511Z,2.60
2023-04-01T18:42:15.962Z,4.25
2023-04-01T18:45:10.650Z,3.35
2023-04-01T18:47:48.205Z,3.75
2023-04-01T18:50:32.695Z,3.50
2023-04-01T18:53:16.054Z,3.15
2023-04-01T18:55:59.566Z,3.17
2023-04-01T18:58:36.715Z,2.30
2023-04-01T19:01:15.386Z,2.78
2023-04-01T19:04:15.382Z,3.85
2023-04-01T19:06:58.308Z,3.22
2023-04-01T19:09:32.796Z,2.85
2023-04-01T19:12:30.684Z,2.67
2023-04-01T19:15:16.842Z,2.13
2023-04-01T19:17:58.232Z,3.40
2023-04-01T19:20:34.293Z,3.57
2023-04-01T19:23:16.402Z,1.80
2023-04-01T19:26:01.402Z,1.30
2023-04-01T19:28:55.618Z,2.13
2023-04-01T19:31:59.848Z,4.50
2023-04-01T19:34:55.593Z,1.80
2023-04-01T19:37:47.591Z,1.83
2023-04-01T19:40:17.150Z,1.70
2023-04-01T19:43:01.783Z,5.60
2023-04-01T19:46:03.658Z,2.22
2023-04-01T19:48:55.524Z,3.70
2023-04-01T19:51:32.987Z,3.70
2023-04-01T19:54:08.856Z,1.13
2023-04-01T19:56:44.801Z,3.00
2023-04-01T19:59:35.075Z,5.40
2023-04-01T20:02:12.114Z,1.88
2023-04-01T20:04:46.959Z,7.10
2023-04-01T20:07:22.580Z,1.75
2023-04-01T20:10:10.976Z,2.50
2023-04-01T20:12:56.495Z,1.65
2023-04-01T20:15:35.927Z,5.68
2023-04-01T20:18:29.273Z,3.45
2023-04-01T20:21:06.097Z,2.40
2023-04-01T20:23:44.745Z,2.20
2023-04-01T20:26:20.275Z,1.02
2023-04-01T20:29:16.217Z,1.88
2023-04-01T20:31:46.368Z,1.15
2023-04-01T20:34:23.788Z,1.63
2023-04-01T20:37:15.448Z,2.00
2023-04-01T20:40:00.630Z,4.57
2023-04-01T20:42:46.321Z,1.98
2023-04-01T20:45:34.890Z,1.80
2023-04-01T20:48:39.594Z,2.30
2023-04-01T20:51:24.281Z,2.80
2023-04-01T20:54:27.517Z,1.80
2023-04-01T20:57:07.615Z,1.80
2023-04-01T20:59:43.826Z,1.20
2023-04-01T21:02:51.092Z,3.28
2023-04-01T21:05:47.208Z,1.25
2023-04-01T21:08:35.056Z,3.72
2023-04-01T21:11:21.637Z,1.17
2023-04-01T21:13:59.116Z,1.83
2023-04-01T21:16:57.444Z,3.13
2023-04-01T21:19:48.032Z,1.88
2023-04-01T21:22:17.579Z,1.23
2023-04-01T21:25:10.068Z,4.20
2023-04-01T21:30:24.688Z,1.67
2023-04-01T21:33:53.068Z,1.33
2023-04-01T21:36:59.839Z,2.05
2023-04-01T21:39:45.602Z,1.00
2023-04-01T21:42:34.871Z,0.65
2023-04-01T21:45:15.562Z,2.08
2023-04-01T21:48:15.615Z,1.02
2023-04-01T21:50:50.899Z,3.22
2023-04-01T21:53:26.383Z,3.70
2023-04-01T21:56:17.744Z,1.52
2023-04-01T21:59:08.530Z,0.52
2023-04-01T22:02:07.106Z,1.08
2023-04-01T22:04:43.814Z,1.85
2023-04-01T22:07:21.983Z,1.13
2023-04-01T22:10:41.664Z,4.38
2023-04-01T22:13:20.140Z,1.67
2023-04-01T22:16:08.241Z,0.73
2023-04-01T22:18:45.505Z,1.05
2023-04-01T22:21:30.989Z,3.00
2023-04-01T22:24:16.521Z,1.60
2023-04-01T22:27:24.682Z,1.50
2023-04-01T22:30:25.299Z,3.47
2023-04-01T22:33:03.191Z,2.55
2023-04-01T22:35:33.230Z,1.95
2023-04-01T22:38:11.148Z,2.08
2023-04-01T22:40:50.351Z,1.83
2023-04-01T22:43:33.742Z,1.08
2023-04-01T22:46:34.319Z,2.33
2023-04-01T22:49:10.545Z,1.30
2023-04-01T22:51:46.266Z,2.63
2023-04-01T22:54:44.510Z,0.80
2023-04-01T22:57:35.189Z,0.73
2023-04-01T23:00:20.725Z,1.33
2023-04-01T23:03:13.685Z,1.35
2023-04-01T23:05:52.620Z,1.35
2023-04-01T23:08:40.815Z,3.03
2023-04-01T23:11:29.016Z,0.77
2023-04-01T23:14:21.715Z,2.08
2023-04-01T23:17:11.524Z,1.73
2023-04-01T23:19:55.473Z,2.15
2023-04-01T23:22:35.760Z,1.38
2023-04-01T23:25:14.493Z,4.20
2023-04-01T23:27:51.150Z,2.25
2023-04-01T23:30:48.708Z,2.13
2023-04-01T23:33:21.185Z,2.80
2023-04-01T23:35:53.840Z,0.63
2023-04-01T23:38:22.893Z,1.75
2023-04-01T23:40:52.438Z,0.95
2023-04-01T23:43:34.815Z,1.88
2023-04-01T23:46:06.981Z,1.50
2023-04-01T23:48:38.714Z,1.52
2023-04-01T23:51:17.331Z,1.23
2023-04-01T23:53:46.904Z,0.88
2023-04-01T23:56:16.959Z,1.55
2023-04-01T23:58:56.523Z,1.17
